createdAt,value
2023-02-16T00:01:24.007Z,69.30
2023-02-16T00:03:53.477Z,79.80
2023-02-16T00:06:21.873Z,77.00
2023-02-16T00:08:51.391Z,81.60
2023-02-16T00:11:41.506Z,73.90
2023-02-16T00:14:11.135Z,79.70
2023-02-16T00:16:39.548Z,67.60
2023-02-16T00:19:17.426Z,73.10
2023-02-16T00:21:45.759Z,77.10
2023-02-16T00:24:14.000Z,76.80
2023-02-16T00:26:43.240Z,73.50
2023-02-16T00:29:21.373Z,80.30
2023-02-16T00:31:49.833Z,80.00
2023-02-16T00:34:35.992Z,76.40
2023-02-16T00:37:05.842Z,73.10
2023-02-16T00:39:34.410Z,75.40
2023-02-16T00:42:05.142Z,71.10
2023-02-16T00:44:37.261Z,69.70
2023-02-16T00:47:14.536Z,73.00
2023-02-16T00:49:42.812Z,76.50
2023-02-16T00:52:27.786Z,86.60
2023-02-16T00:54:56.130Z,75.60
2023-02-16T00:57:24.802Z,72.30
2023-02-16T00:59:58.181Z,76.00
2023-02-16T01:02:26.909Z,81.10
2023-02-16T01:48:22.422Z,78.10
2023-02-16T01:50:56.443Z,84.20
2023-02-16T01:53:28.736Z,78.60
2023-02-16T01:56:01.960Z,81.80
2023-02-16T01:58:36.000Z,88.00
2023-02-16T02:01:32.428Z,84.30
2023-02-16T02:04:19.355Z,86.00
2023-02-16T02:06:48.137Z,81.10
2023-02-16T02:09:21.972Z,76.00
2023-02-16T02:11:54.130Z,80.40
2023-02-16T02:14:28.773Z,77.40
2023-02-16T02:16:58.785Z,82.30
2023-02-16T02:19:27.344Z,85.80
2023-02-16T02:22:29.317Z,87.40
2023-02-16T02:25:27.524Z,77.50
2023-02-16T02:28:00.442Z,85.20
2023-02-16T02:30:38.269Z,84.50
2023-02-16T02:33:25.247Z,81.50
2023-02-16T02:35:57.452Z,93.50
2023-02-16T02:38:30.392Z,87.00
2023-02-16T02:41:03.883Z,91.80
2023-02-16T02:43:36.936Z,86.20
2023-02-16T02:46:08.686Z,72.50
2023-02-16T02:48:37.146Z,77.00
2023-02-16T02:51:29.860Z,84.10
2023-02-16T02:54:39.876Z,92.00
2023-02-16T02:57:32.787Z,88.70
2023-02-16T03:00:22.952Z,89.30
2023-02-16T03:02:53.574Z,93.70
2023-02-16T03:05:22.966Z,85.40
2023-02-16T03:07:56.675Z,82.50
2023-02-16T03:10:45.536Z,87.00
2023-02-16T03:13:17.477Z,83.10
2023-02-16T03:15:47.106Z,83.20
2023-02-16T03:18:34.483Z,83.90
2023-02-16T03:21:22.983Z,96.90
2023-02-16T03:24:10.009Z,94.20
2023-02-16T03:26:57.156Z,90.90
2023-02-16T03:29:26.810Z,89.90
2023-02-16T03:31:56.191Z,79.50
2023-02-16T03:34:25.250Z,81.60
2023-02-16T03:36:58.087Z,87.80
2023-02-16T03:39:27.122Z,88.70
2023-02-16T03:41:56.760Z,94.30
2023-02-16T03:44:25.336Z,88.80
2023-02-16T03:46:53.807Z,92.70
2023-02-16T03:49:22.186Z,86.50
2023-02-16T03:51:50.570Z,87.90
2023-02-16T03:54:18.946Z,87.30
2023-02-16T03:56:47.279Z,83.40
2023-02-16T03:59:19.577Z,85.10
2023-02-16T04:01:47.977Z,94.70
2023-02-16T04:04:16.462Z,89.20
2023-02-16T04:06:44.864Z,89.00
2023-02-16T04:09:13.180Z,87.90
2023-02-16T04:11:59.832Z,86.70
2023-02-16T04:14:28.247Z,84.90
2023-02-16T04:16:56.606Z,93.00
2023-02-16T04:19:24.964Z,87.60
2023-02-16T04:21:53.339Z,95.50
2023-02-16T04:24:21.845Z,96.70
2023-02-16T04:26:50.245Z,97.50
2023-02-16T04:29:18.587Z,85.60
2023-02-16T04:31:47.045Z,83.90
2023-02-16T04:34:15.553Z,80.00
2023-02-16T04:36:43.903Z,84.60
2023-02-16T04:39:12.322Z,87.10
2023-02-16T04:41:40.700Z,87.80
2023-02-16T04:44:09.121Z,89.50
2023-02-16T04:46:37.463Z,96.20
2023-02-16T04:49:06.042Z,85.10
2023-02-16T04:51:34.491Z,83.50
2023-02-16T04:54:02.848Z,80.60
2023-02-16T04:56:31.182Z,92.40
2023-02-16T04:58:59.620Z,86.90
2023-02-16T05:01:28.637Z,90.70
2023-02-16T05:03:57.074Z,95.20
2023-02-16T05:06:25.429Z,86.00
2023-02-16T05:08:53.839Z,85.80
2023-02-16T05:11:40.354Z,75.30
2023-02-16T05:14:35.250Z,86.10
2023-02-16T05:17:03.763Z,86.60
2023-02-16T05:19:32.143Z,90.20
2023-02-16T05:22:00.542Z,92.50
2023-02-16T05:24:29.051Z,91.30
2023-02-16T05:26:57.409Z,86.60
2023-02-16T05:29:25.901Z,85.00
2023-02-16T05:31:54.567Z,87.50
2023-02-16T05:34:23.020Z,77.00
2023-02-16T05:36:51.391Z,89.50
2023-02-16T05:39:20.151Z,81.00
2023-02-16T05:41:49.114Z,85.70
2023-02-16T05:44:17.683Z,87.70
2023-02-16T05:46:48.565Z,87.40
2023-02-16T05:49:17.375Z,89.30
2023-02-16T05:51:46.193Z,79.40
2023-02-16T05:54:16.828Z,78.10
2023-02-16T05:56:46.465Z,81.60
2023-02-16T05:59:15.657Z,86.70
2023-02-16T06:01:46.169Z,86.80
2023-02-16T06:04:15.790Z,85.90
2023-02-16T06:06:44.647Z,86.40
2023-02-16T06:09:13.051Z,82.00
2023-02-16T06:11:41.427Z,83.30
2023-02-16T06:14:11.399Z,86.80
2023-02-16T06:16:42.113Z,79.90
2023-02-16T06:19:11.019Z,77.80
2023-02-16T06:21:40.188Z,80.50
2023-02-16T06:24:10.112Z,78.50
2023-02-16T06:26:38.605Z,85.00
2023-02-16T06:29:07.056Z,79.70
2023-02-16T06:31:36.788Z,81.70
2023-02-16T06:34:06.174Z,81.20
2023-02-16T06:36:35.048Z,86.60
2023-02-16T06:41:31.612Z,86.60
2023-02-16T06:44:00.708Z,85.20
2023-02-16T06:46:29.183Z,92.30
2023-02-16T06:48:57.955Z,84.00
2023-02-16T06:51:26.487Z,85.30
2023-02-16T06:53:54.925Z,95.60
2023-02-16T06:56:23.744Z,93.80
2023-02-16T06:58:52.332Z,96.30
2023-02-16T07:01:24.959Z,100.70
2023-02-16T07:03:53.866Z,93.60
2023-02-16T07:08:50.962Z,123.70
2023-02-16T07:11:19.543Z,104.20
2023-02-16T07:13:48.208Z,82.40
2023-02-16T07:16:16.687Z,94.00
2023-02-16T07:18:45.916Z,85.20
2023-02-16T07:21:14.986Z,76.70
2023-02-16T07:23:43.353Z,72.30
2023-02-16T07:26:11.872Z,79.20
2023-02-16T07:28:40.283Z,90.40
2023-02-16T07:31:10.168Z,77.90
2023-02-16T07:33:39.116Z,74.00
2023-02-16T07:38:35.918Z,74.30
2023-02-16T07:41:07.885Z,78.20
2023-02-16T07:43:37.839Z,75.90
2023-02-16T07:46:06.564Z,66.90
2023-02-16T07:48:35.241Z,72.40
2023-02-16T07:51:04.490Z,77.20
2023-02-16T07:53:33.214Z,79.40
2023-02-16T07:56:01.508Z,76.60
2023-02-16T07:58:29.951Z,77.80
2023-02-16T08:01:07.141Z,80.00
2023-02-16T08:03:35.494Z,71.70
2023-02-16T08:06:05.037Z,75.80
2023-02-16T08:08:33.971Z,67.70
2023-02-16T08:11:08.859Z,73.40
2023-02-16T08:13:37.298Z,73.90
2023-02-16T08:16:09.079Z,73.50
2023-02-16T08:18:37.583Z,75.50
2023-02-16T08:21:13.486Z,77.30
2023-02-16T08:23:43.040Z,64.30
2023-02-16T08:26:11.910Z,72.50
2023-02-16T08:28:45.380Z,61.60
2023-02-16T08:31:14.331Z,75.90
2023-02-16T08:33:43.306Z,73.30
2023-02-16T08:36:18.217Z,61.80
2023-02-16T08:38:49.708Z,63.70
2023-02-16T08:41:18.692Z,80.60
2023-02-16T08:43:47.218Z,51.50
2023-02-16T08:46:17.132Z,73.50
2023-02-16T08:48:46.764Z,62.20
2023-02-16T08:51:16.884Z,70.20
2023-02-16T08:53:45.964Z,74.20
2023-02-16T08:56:16.009Z,74.00
2023-02-16T08:58:44.578Z,72.70
2023-02-16T09:01:14.824Z,64.60
2023-02-16T09:03:45.448Z,66.70
2023-02-16T09:06:15.437Z,72.90
2023-02-16T09:08:45.880Z,68.50
2023-02-16T09:11:15.883Z,80.70
2023-02-16T09:13:44.430Z,66.00
2023-02-16T09:16:14.965Z,76.10
2023-02-16T09:18:44.606Z,76.30
2023-02-16T09:21:15.177Z,60.50
2023-02-16T09:23:47.499Z,60.20
2023-02-16T09:26:16.969Z,59.30
2023-02-16T09:28:46.545Z,71.80
2023-02-16T09:31:19.345Z,71.00
2023-02-16T09:33:47.797Z,62.10
2023-02-16T09:36:16.681Z,72.90
2023-02-16T09:38:46.828Z,54.90
2023-02-16T09:41:23.135Z,67.50
2023-02-16T09:43:58.145Z,60.00
2023-02-16T09:46:26.947Z,50.30
2023-02-16T09:48:56.315Z,63.30
2023-02-16T09:51:34.420Z,60.70
2023-02-16T09:54:13.932Z,70.70
2023-02-16T09:56:45.305Z,68.30
2023-02-16T09:59:16.694Z,50.50
2023-02-16T10:01:51.452Z,59.90
2023-02-16T10:04:30.388Z,38.10
2023-02-16T10:07:05.493Z,53.00
2023-02-16T10:09:34.208Z,58.50
2023-02-16T10:12:05.634Z,63.70
2023-02-16T10:14:40.502Z,60.00
2023-02-16T10:17:27.634Z,65.70
2023-02-16T10:19:59.484Z,56.90
2023-02-16T10:22:30.803Z,63.30
2023-02-16T10:25:01.748Z,59.50
2023-02-16T10:27:35.267Z,55.60
2023-02-16T10:30:12.830Z,47.40
2023-02-16T12:06:17.016Z,53.00
2023-02-16T12:09:07.864Z,56.30
2023-02-16T12:11:49.762Z,55.20
2023-02-16T12:14:32.420Z,57.30
2023-02-16T12:17:13.640Z,54.20
2023-02-16T12:19:47.909Z,57.70
2023-02-16T12:22:29.757Z,48.60
2023-02-16T12:25:19.861Z,55.80
2023-02-16T12:27:54.126Z,51.20
2023-02-16T12:30:36.907Z,52.90
2023-02-16T12:33:27.686Z,47.30
2023-02-16T12:36:09.382Z,57.00
2023-02-16T12:38:50.134Z,47.20
2023-02-16T12:43:56.642Z,48.50
2023-02-16T12:46:33.030Z,50.70
2023-02-16T12:49:08.409Z,50.00
2023-02-16T12:51:43.673Z,52.00
2023-02-16T12:54:20.817Z,38.90
2023-02-16T12:56:56.279Z,54.30
2023-02-16T12:59:34.007Z,46.30
2023-02-16T13:02:11.117Z,50.20
2023-02-16T13:04:45.701Z,42.40
2023-02-16T13:07:22.621Z,51.60
2023-02-16T13:10:01.421Z,54.30
2023-02-16T13:12:35.825Z,44.80
2023-02-16T13:15:14.324Z,47.50
2023-02-16T13:17:50.185Z,46.50
2023-02-16T13:20:24.885Z,29.60
2023-02-16T13:23:30.385Z,44.70
2023-02-16T13:26:24.311Z,48.50
2023-02-16T13:29:27.380Z,43.20
2023-02-16T13:32:10.278Z,35.00
2023-02-16T13:34:56.540Z,42.80
2023-02-16T13:37:38.329Z,38.90
2023-02-16T13:40:40.007Z,43.80
2023-02-16T13:43:26.614Z,41.60
2023-02-16T13:45:58.817Z,42.80
2023-02-16T13:48:33.616Z,43.10
2023-02-16T13:51:08.896Z,44.60
2023-02-16T13:53:42.758Z,47.60
2023-02-16T13:56:22.376Z,44.40
2023-02-16T13:58:55.058Z,43.90
2023-02-16T14:01:43.196Z,49.90
2023-02-16T14:04:36.678Z,48.00
2023-02-16T14:07:35.964Z,57.00
2023-02-16T14:10:09.950Z,52.60
2023-02-16T14:12:42.092Z,51.30
2023-02-16T14:15:22.000Z,56.00
2023-02-16T14:17:54.209Z,49.30
2023-02-16T14:20:31.676Z,50.60
2023-02-16T14:23:03.583Z,55.90
2023-02-16T14:25:42.463Z,53.40
2023-02-16T14:28:48.686Z,52.90
2023-02-16T14:31:23.848Z,52.70
2023-02-16T14:34:04.217Z,61.30
2023-02-16T14:36:36.156Z,60.30
2023-02-16T14:39:13.738Z,53.80
2023-02-16T14:41:45.639Z,57.90
2023-02-16T14:44:35.026Z,56.20
2023-02-16T14:47:18.304Z,66.10
2023-02-16T14:50:09.266Z,52.00
2023-02-16T14:53:20.031Z,53.80
2023-02-16T14:56:09.030Z,69.20
2023-02-16T14:58:48.588Z,61.50
2023-02-16T15:01:23.195Z,67.80
2023-02-16T15:03:56.719Z,62.00
2023-02-16T15:06:35.561Z,67.70
2023-02-16T15:09:14.606Z,63.90
2023-02-16T15:12:09.253Z,62.30
2023-02-16T15:14:45.153Z,63.50
2023-02-16T15:17:29.553Z,65.10
2023-02-16T15:20:06.203Z,96.40
2023-02-16T15:22:43.763Z,66.30
2023-02-16T15:25:24.620Z,62.70
2023-02-16T15:30:32.988Z,56.40
2023-02-16T15:33:06.907Z,60.60
2023-02-16T15:35:41.303Z,60.90
2023-02-16T15:38:23.144Z,67.50
2023-02-16T15:40:57.149Z,59.50
2023-02-16T15:43:33.829Z,66.20
2023-02-16T15:46:07.981Z,63.20
2023-02-16T15:48:41.172Z,66.80
2023-02-16T15:51:16.563Z,66.70
2023-02-16T15:53:51.750Z,61.60
2023-02-16T15:56:33.277Z,56.90
2023-02-16T15:59:13.369Z,60.20
2023-02-16T16:01:46.158Z,65.30
2023-02-16T16:04:22.232Z,68.10
2023-02-16T16:06:54.790Z,79.20
2023-02-16T16:09:28.467Z,67.90
2023-02-16T16:12:01.946Z,76.20
2023-02-16T16:14:36.301Z,69.30
2023-02-16T16:17:08.988Z,65.20
2023-02-16T16:19:41.158Z,70.40
2023-02-16T16:22:31.852Z,68.20
2023-02-16T16:25:04.481Z,66.10
2023-02-16T16:27:37.533Z,64.50
2023-02-16T16:30:22.266Z,65.20
2023-02-16T16:33:04.015Z,65.80
2023-02-16T16:35:40.480Z,66.50
2023-02-16T16:38:27.671Z,67.20
2023-02-16T16:41:01.111Z,63.10
2023-02-16T16:43:34.093Z,64.20
2023-02-16T16:46:20.272Z,62.30
2023-02-16T16:48:53.658Z,57.20
2023-02-16T16:51:39.787Z,67.40
2023-02-16T16:54:14.126Z,56.30
2023-02-16T16:56:46.003Z,61.20
2023-02-16T16:59:17.843Z,63.70
2023-02-16T17:01:50.413Z,68.30
2023-02-16T17:04:22.620Z,63.80
2023-02-16T17:06:54.656Z,162.70
2023-02-16T17:09:26.538Z,89.30
2023-02-16T17:11:58.454Z,62.10
2023-02-16T17:14:30.327Z,63.90
2023-02-16T17:17:02.180Z,62.50
2023-02-16T17:19:34.052Z,60.70
2023-02-16T17:22:14.154Z,58.90
2023-02-16T17:24:46.355Z,58.00
2023-02-16T17:27:19.835Z,60.30
2023-02-16T17:29:51.689Z,61.00
2023-02-16T17:32:24.326Z,52.70
2023-02-16T17:34:56.171Z,56.00
2023-02-16T17:37:28.110Z,55.10
2023-02-16T17:39:59.922Z,53.30
2023-02-16T17:42:31.766Z,53.80
2023-02-16T17:45:03.701Z,55.10
2023-02-16T17:47:35.613Z,52.60
2023-02-16T17:50:09.039Z,86.40
2023-02-16T17:52:40.955Z,69.10
2023-02-16T17:55:13.746Z,62.70
2023-02-16T17:57:45.936Z,56.50
2023-02-16T18:00:22.541Z,62.40
2023-02-16T18:02:54.435Z,56.50
2023-02-16T18:05:26.349Z,53.90
2023-02-16T18:07:58.315Z,50.60
2023-02-16T18:10:36.975Z,53.10
2023-02-16T18:13:09.582Z,57.70
2023-02-16T18:15:42.632Z,58.70
2023-02-16T18:18:14.774Z,52.70
2023-02-16T18:20:46.946Z,56.60
2023-02-16T18:23:18.894Z,62.30
2023-02-16T18:25:50.739Z,60.20
2023-02-16T18:28:28.656Z,56.20
2023-02-16T18:31:01.234Z,54.60
2023-02-16T18:33:34.101Z,53.20
2023-02-16T18:36:07.245Z,56.20
2023-02-16T18:38:39.688Z,67.30
2023-02-16T18:41:12.013Z,57.70
2023-02-16T18:43:43.813Z,54.20
2023-02-16T18:46:15.684Z,58.00
2023-02-16T18:48:47.515Z,55.30
2023-02-16T18:51:23.528Z,110.40
2023-02-16T18:53:55.337Z,57.20
2023-02-16T18:56:27.643Z,53.80
2023-02-16T18:58:59.512Z,55.20
2023-02-16T19:01:33.377Z,56.10
2023-02-16T19:04:06.148Z,56.80
2023-02-16T19:06:38.032Z,55.90
2023-02-16T19:09:10.043Z,60.10
2023-02-16T19:11:42.404Z,54.30
2023-02-16T19:14:16.774Z,55.80
2023-02-16T19:16:48.672Z,51.60
2023-02-16T19:19:20.432Z,55.00
2023-02-16T19:21:52.256Z,58.60
2023-02-16T19:24:24.287Z,53.10
2023-02-16T19:26:56.115Z,58.70
2023-02-16T19:29:28.119Z,59.90
2023-02-16T19:32:00.021Z,56.10
2023-02-16T19:34:32.072Z,53.20
2023-02-16T19:37:03.858Z,55.40
2023-02-16T19:39:37.985Z,51.80
2023-02-16T19:42:09.864Z,60.30
2023-02-16T19:44:42.734Z,58.80
2023-02-16T19:47:14.497Z,56.20
2023-02-16T19:49:46.470Z,57.20
2023-02-16T19:52:18.325Z,58.50
2023-02-16T19:54:50.181Z,58.40
2023-02-16T19:57:22.079Z,55.70
2023-02-16T19:59:54.044Z,55.90
2023-02-16T20:02:25.990Z,61.90
2023-02-16T20:04:57.822Z,57.60
2023-02-16T20:07:29.664Z,58.20
2023-02-16T20:10:01.431Z,51.50
2023-02-16T20:12:33.409Z,56.20
2023-02-16T20:15:06.128Z,74.70
2023-02-16T20:17:37.997Z,63.20
2023-02-16T20:20:11.074Z,65.40
2023-02-16T20:22:42.884Z,67.60
2023-02-16T20:25:14.925Z,70.10
2023-02-16T20:27:46.830Z,57.00
2023-02-16T20:30:24.278Z,57.50
2023-02-16T20:32:56.153Z,54.10
2023-02-16T20:35:28.073Z,56.10
2023-02-16T20:37:59.861Z,49.30
2023-02-16T20:40:31.855Z,59.40
2023-02-16T20:43:03.992Z,60.70
2023-02-16T20:45:41.179Z,63.40
2023-02-16T20:48:13.014Z,62.90
2023-02-16T20:50:46.219Z,58.10
2023-02-16T20:53:18.091Z,58.90
2023-02-16T20:55:49.948Z,56.40
2023-02-16T20:58:21.769Z,60.60
2023-02-16T21:00:53.618Z,59.80
2023-02-16T21:03:25.557Z,59.50
2023-02-16T21:05:57.500Z,61.10
2023-02-16T21:08:29.321Z,61.50
2023-02-16T21:11:02.368Z,64.40
2023-02-16T21:13:34.405Z,57.70
2023-02-16T21:16:07.348Z,60.40
2023-02-16T21:18:40.694Z,61.90
2023-02-16T21:21:15.690Z,53.00
2023-02-16T21:23:49.420Z,64.50
2023-02-16T21:26:23.180Z,65.10
2023-02-16T21:28:55.466Z,64.90
2023-02-16T21:31:28.527Z,62.30
2023-02-16T21:34:00.406Z,59.30
2023-02-16T21:36:32.288Z,61.70
2023-02-16T21:39:05.185Z,59.40
2023-02-16T21:41:37.079Z,60.50
2023-02-16T21:44:10.139Z,63.30
2023-02-16T21:46:43.537Z,61.90
2023-02-16T21:49:17.718Z,66.50
2023-02-16T21:51:50.274Z,68.30
2023-02-16T21:54:42.102Z,74.00
2023-02-16T21:57:13.844Z,67.60
2023-02-16T21:59:45.701Z,65.80
2023-02-16T22:02:17.522Z,67.50
2023-02-16T22:04:50.645Z,70.70
2023-02-16T22:07:22.418Z,67.30
2023-02-16T22:09:54.199Z,76.00
2023-02-16T22:12:25.981Z,65.60
2023-02-16T22:14:57.806Z,67.30
2023-02-16T22:17:29.558Z,67.60
2023-02-16T22:20:01.483Z,59.40
2023-02-16T22:22:33.314Z,61.90
2023-02-16T22:25:05.272Z,66.00
2023-02-16T22:27:37.040Z,75.90
2023-02-16T22:30:12.279Z,65.20
2023-02-16T22:32:44.167Z,70.80
2023-02-16T22:35:16.194Z,66.70
2023-02-16T22:37:47.963Z,59.50
2023-02-16T22:40:20.501Z,61.10
2023-02-16T22:42:52.320Z,65.10
2023-02-16T22:45:24.339Z,58.70
2023-02-16T22:47:56.327Z,68.70
2023-02-16T22:50:28.224Z,68.90
2023-02-16T22:52:59.998Z,63.40
2023-02-16T22:55:31.951Z,58.20
2023-02-16T22:58:03.687Z,61.80
2023-02-16T23:00:35.478Z,58.50
2023-02-16T23:03:07.378Z,55.70
2023-02-16T23:05:41.418Z,59.40
2023-02-16T23:08:13.767Z,61.80
2023-02-16T23:10:59.971Z,54.30
2023-02-16T23:13:33.375Z,56.60
2023-02-16T23:16:09.303Z,56.40
2023-02-16T23:18:41.259Z,59.20
2023-02-16T23:21:18.322Z,60.20
2023-02-16T23:23:51.360Z,59.10
2023-02-16T23:26:24.705Z,55.60
2023-02-16T23:29:00.368Z,61.50
2023-02-16T23:31:34.724Z,63.90
2023-02-16T23:34:07.661Z,62.00
2023-02-16T23:36:40.191Z,68.70
2023-02-16T23:39:14.254Z,62.70
2023-02-16T23:41:46.384Z,66.90
2023-02-16T23:44:18.340Z,55.20
2023-02-16T23:46:50.131Z,62.60
2023-02-16T23:49:22.138Z,64.30
2023-02-16T23:51:53.948Z,62.80
2023-02-16T23:54:25.908Z,67.20
2023-02-16T23:56:59.171Z,70.00
2023-02-16T23:59:30.967Z,70.50
